Time;durP1;ratioP1;P1;durP2;ratioP2;P2;SDS_P1;SDS_P2;PMS_P1;PMS_P2;Temp;Humidity;BMP_temperature;BMP_pressure;BME280_temperature;BME280_humidity;BME280_pressure;Samples;Min_cycle;Max_cycle;Signal;HPM_P1;HPM_P2
2023/06/18 00:01:58;;;;;;;0.22;0.22;;;;;;;;;;4944530;28;20104;-78
2023/06/18 00:04:25;;;;;;;0.20;0.20;;;;;;;;;;4945793;28;20221;-79
2023/06/18 00:06:52;;;;;;;0.38;0.38;;;;;;;;;;4941696;28;20067;-78
2023/06/18 00:09:20;;;;;;;1.98;1.23;;;;;;;;;;4945469;28;20545;-78
2023/06/18 00:11:46;;;;;;;0.55;0.30;;;;;;;;;;4937156;28;20067;-78
2023/06/18 00:14:13;;;;;;;0.10;0.10;;;;;;;;;;4927042;29;20063;-79
2023/06/18 00:16:39;;;;;;;1.40;0.73;;;;;;;;;;4938150;28;20512;-79
2023/06/18 00:19:05;;;;;;;0.45;0.28;;;;;;;;;;4948257;28;20119;-78
2023/06/18 00:21:32;;;;;;;0.30;0.30;;;;;;;;;;4947903;28;20067;-78
2023/06/18 00:23:58;;;;;;;0.43;0.40;;;;;;;;;;4947255;28;20184;-79
2023/06/18 00:26:25;;;;;;;0.38;0.28;;;;;;;;;;4945613;28;20060;-79
2023/06/18 00:28:52;;;;;;;0.85;0.28;;;;;;;;;;4959400;28;20537;-77
2023/06/18 00:31:19;;;;;;;0.47;0.32;;;;;;;;;;4946869;28;20207;-78
2023/06/18 00:33:45;;;;;;;0.20;0.20;;;;;;;;;;4945963;28;20087;-78
2023/06/18 00:36:12;;;;;;;0.75;0.75;;;;;;;;;;4941049;28;20212;-77
2023/06/18 00:38:43;;;;;;;0.40;0.40;;;;;;;;;;4942540;28;20059;-78
2023/06/18 00:41:10;;;;;;;2.67;0.98;;;;;;;;;;4946505;28;20064;-78
2023/06/18 00:43:37;;;;;;;0.47;0.47;;;;;;;;;;4946457;28;20051;-78
2023/06/18 00:46:04;;;;;;;2.03;1.73;;;;;;;;;;4946072;28;20202;-78
2023/06/18 00:48:31;;;;;;;0.60;0.47;;;;;;;;;;4944697;28;20094;-79
2023/06/18 00:50:59;;;;;;;0.40;0.30;;;;;;;;;;4945596;28;20060;-78
2023/06/18 00:53:25;;;;;;;0.45;0.45;;;;;;;;;;4947934;28;20584;-78
2023/06/18 00:55:52;;;;;;;0.75;0.30;;;;;;;;;;4946894;28;20052;-78
2023/06/18 00:58:23;;;;;;;0.10;0.10;;;;;;;;;;4944476;28;20055;-77
2023/06/18 01:00:53;;;;;;;0.98;0.75;;;;;;;;;;4945509;28;20090;-79
2023/06/18 01:03:21;;;;;;;0.28;0.28;;;;;;;;;;4944334;28;20043;-78
2023/06/18 01:06:01;;;;;;;0.45;0.45;;;;;;;;;;4944754;28;20638;-78
2023/06/18 01:08:32;;;;;;;0.43;0.43;;;;;;;;;;4944254;28;20087;-80
2023/06/18 01:11:01;;;;;;;0.32;0.30;;;;;;;;;;4946845;28;20131;-78
2023/06/18 01:13:33;;;;;;;0.20;0.20;;;;;;;;;;4946598;28;20072;-79
2023/06/18 01:16:03;;;;;;;0.47;0.47;;;;;;;;;;4945465;28;20048;-79
2023/06/18 01:18:34;;;;;;;0.47;0.30;;;;;;;;;;4942138;28;20067;-78
2023/06/18 01:21:05;;;;;;;0.20;0.20;;;;;;;;;;4945262;28;20491;-78
2023/06/18 01:23:49;;;;;;;0.40;0.40;;;;;;;;;;4944421;28;20056;-77
2023/06/18 01:26:21;;;;;;;0.17;0.17;;;;;;;;;;4941189;28;20055;-78
2023/06/18 01:28:51;;;;;;;0.57;0.30;;;;;;;;;;4942096;28;20228;-78
2023/06/18 01:31:22;;;;;;;0.15;0.15;;;;;;;;;;4942522;28;20056;-78
2023/06/18 01:33:53;;;;;;;0.13;0.13;;;;;;;;;;4943466;28;20055;-78
2023/06/18 01:36:40;;;;;;;0.52;0.45;;;;;;;;;;4937115;28;20388;-79
2023/06/18 01:39:11;;;;;;;0.10;0.10;;;;;;;;;;4942312;28;20055;-78
2023/06/18 01:41:38;;;;;;;1.35;0.55;;;;;;;;;;4943237;28;20550;-78
2023/06/18 01:44:08;;;;;;;0.35;0.30;;;;;;;;;;4942910;28;20487;-78
2023/06/18 01:46:35;;;;;;;0.17;0.17;;;;;;;;;;4941035;28;20837;-78
2023/06/18 01:49:03;;;;;;;0.20;0.20;;;;;;;;;;4943809;28;20576;-78
2023/06/18 01:51:31;;;;;;;0.45;0.40;;;;;;;;;;4944590;28;20545;-78
2023/06/18 01:53:59;;;;;;;0.30;0.30;;;;;;;;;;4943603;28;20529;-78
2023/06/18 01:56:28;;;;;;;1.23;0.82;;;;;;;;;;4942924;28;20054;-77
2023/06/18 01:58:55;;;;;;;0.30;0.22;;;;;;;;;;4941981;28;20062;-80
2023/06/18 02:01:22;;;;;;;0.10;0.10;;;;;;;;;;4942566;28;20140;-78
2023/06/18 02:03:48;;;;;;;0.10;0.10;;;;;;;;;;4941178;28;20447;-77
2023/06/18 02:06:15;;;;;;;0.20;0.20;;;;;;;;;;4941909;28;20060;-80
2023/06/18 02:08:41;;;;;;;0.63;0.28;;;;;;;;;;4944130;28;20159;-78
2023/06/18 02:11:08;;;;;;;0.60;0.60;;;;;;;;;;4941889;28;20085;-79
2023/06/18 02:13:34;;;;;;;0.40;0.40;;;;;;;;;;4941273;28;20112;-78
2023/06/18 02:16:00;;;;;;;0.40;0.40;;;;;;;;;;4943103;28;20617;-78
2023/06/18 02:18:27;;;;;;;0.47;0.28;;;;;;;;;;4942576;28;20526;-79
2023/06/18 02:20:53;;;;;;;0.30;0.30;;;;;;;;;;4943167;28;20451;-78
2023/06/18 02:23:20;;;;;;;0.17;0.17;;;;;;;;;;4941304;28;20052;-78
2023/06/18 02:25:47;;;;;;;0.10;0.10;;;;;;;;;;4943055;28;20100;-78
2023/06/18 02:28:14;;;;;;;0.20;0.20;;;;;;;;;;4941929;28;20124;-80
2023/06/18 02:30:40;;;;;;;0.15;0.15;;;;;;;;;;4943218;28;20589;-79
2023/06/18 02:33:06;;;;;;;0.30;0.25;;;;;;;;;;4942101;28;20055;-79
2023/06/18 02:35:34;;;;;;;0.20;0.20;;;;;;;;;;4943411;28;20603;-79
2023/06/18 02:38:00;;;;;;;0.10;0.10;;;;;;;;;;4939022;28;20087;-79
2023/06/18 02:40:27;;;;;;;0.10;0.10;;;;;;;;;;4944848;28;20059;-78
2023/06/18 02:42:54;;;;;;;0.15;0.15;;;;;;;;;;4944842;28;20059;-78
2023/06/18 02:45:22;;;;;;;0.47;0.40;;;;;;;;;;4944247;28;20526;-79
2023/06/18 02:47:49;;;;;;;0.30;0.30;;;;;;;;;;4945418;28;20143;-78
2023/06/18 02:50:16;;;;;;;0.35;0.30;;;;;;;;;;4947370;28;20190;-78
2023/06/18 02:52:43;;;;;;;0.20;0.20;;;;;;;;;;4944896;28;20107;-76
2023/06/18 02:55:10;;;;;;;0.38;0.30;;;;;;;;;;4945375;28;20063;-78
2023/06/18 02:57:37;;;;;;;0.60;0.50;;;;;;;;;;4944821;28;20524;-77
2023/06/18 03:00:04;;;;;;;0.40;0.20;;;;;;;;;;4946572;28;20055;-79
2023/06/18 03:02:31;;;;;;;0.52;0.38;;;;;;;;;;4946877;28;20060;-77
2023/06/18 03:04:58;;;;;;;0.10;0.10;;;;;;;;;;4946233;28;20062;-78
2023/06/18 03:07:24;;;;;;;1.02;0.73;;;;;;;;;;4946609;28;20051;-78
2023/06/18 03:09:51;;;;;;;1.08;0.38;;;;;;;;;;4946882;28;20132;-78
2023/06/18 03:12:17;;;;;;;0.13;0.13;;;;;;;;;;4944410;28;20524;-78
2023/06/18 03:14:44;;;;;;;0.22;0.22;;;;;;;;;;4947031;28;20059;-78
2023/06/18 03:17:10;;;;;;;0.10;0.10;;;;;;;;;;4943373;28;20111;-79
2023/06/18 03:19:37;;;;;;;1.17;0.50;;;;;;;;;;4945908;28;20514;-78
2023/06/18 03:22:04;;;;;;;0.17;0.10;;;;;;;;;;4945807;28;20052;-77
2023/06/18 03:24:31;;;;;;;0.10;0.10;;;;;;;;;;4945148;28;20523;-79
2023/06/18 03:26:58;;;;;;;0.20;0.20;;;;;;;;;;4946141;28;20077;-77
2023/06/18 03:29:25;;;;;;;0.15;0.10;;;;;;;;;;4943553;28;20055;-79
2023/06/18 03:31:54;;;;;;;0.10;0.10;;;;;;;;;;4946157;28;20059;-78
2023/06/18 03:34:21;;;;;;;0.10;0.10;;;;;;;;;;4944790;28;20055;-79
2023/06/18 03:36:48;;;;;;;0.30;0.30;;;;;;;;;;4944378;28;20054;-78
2023/06/18 03:39:15;;;;;;;0.10;0.10;;;;;;;;;;4943417;28;20083;-79
2023/06/18 03:41:42;;;;;;;0.32;0.20;;;;;;;;;;4944654;28;20054;-79
2023/06/18 03:44:08;;;;;;;0.20;0.20;;;;;;;;;;4945814;28;20138;-76
2023/06/18 03:46:35;;;;;;;0.20;0.20;;;;;;;;;;4944922;28;20059;-78
2023/06/18 03:49:02;;;;;;;0.20;0.20;;;;;;;;;;4945175;28;20083;-79
2023/06/18 03:51:28;;;;;;;0.22;0.22;;;;;;;;;;4943939;28;20891;-78
2023/06/18 03:53:55;;;;;;;0.25;0.20;;;;;;;;;;4946080;28;20636;-79
2023/06/18 03:56:22;;;;;;;0.20;0.20;;;;;;;;;;4945718;28;20607;-78
2023/06/18 03:58:49;;;;;;;0.10;0.10;;;;;;;;;;4945033;28;20062;-78
2023/06/18 04:01:15;;;;;;;0.32;0.22;;;;;;;;;;4939670;28;20139;-79
2023/06/18 04:03:42;;;;;;;0.73;0.20;;;;;;;;;;4935773;28;20143;-78
2023/06/18 04:06:08;;;;;;;0.25;0.20;;;;;;;;;;4945450;28;20079;-80
2023/06/18 04:08:36;;;;;;;0.10;0.10;;;;;;;;;;4945602;28;20426;-79
2023/06/18 04:11:03;;;;;;;0.30;0.30;;;;;;;;;;4944047;28;20056;-80
2023/06/18 04:13:29;;;;;;;0.15;0.15;;;;;;;;;;4944908;28;20127;-79
2023/06/18 04:15:57;;;;;;;0.80;0.50;;;;;;;;;;4939506;28;20689;-79
2023/06/18 04:20:58;;;;;;;0.55;0.45;;;;;;;;;;5929948;22;20041;-76
2023/06/18 04:23:25;;;;;;;0.52;0.30;;;;;;;;;;4974460;28;20512;-77
2023/06/18 04:25:51;;;;;;;0.45;0.40;;;;;;;;;;4981703;28;21328;-78
2023/06/18 04:28:18;;;;;;;0.63;0.63;;;;;;;;;;4983535;28;20054;-79
2023/06/18 04:30:45;;;;;;;0.30;0.25;;;;;;;;;;4984720;28;20051;-78
2023/06/18 04:33:11;;;;;;;0.10;0.10;;;;;;;;;;4985329;28;20336;-78
2023/06/18 04:35:38;;;;;;;2.25;0.68;;;;;;;;;;4985312;28;20596;-78
2023/06/18 04:38:04;;;;;;;0.32;0.20;;;;;;;;;;4984014;28;20113;-78
2023/06/18 04:40:30;;;;;;;0.57;0.57;;;;;;;;;;4980322;28;20145;-78
2023/06/18 04:42:57;;;;;;;1.55;1.10;;;;;;;;;;4977439;28;20129;-81
2023/06/18 04:45:24;;;;;;;0.40;0.30;;;;;;;;;;4986318;28;20055;-78
2023/06/18 04:47:50;;;;;;;0.10;0.10;;;;;;;;;;4985544;28;20054;-77
2023/06/18 04:50:16;;;;;;;0.43;0.28;;;;;;;;;;4986892;28;20066;-79
2023/06/18 04:52:43;;;;;;;2.00;1.10;;;;;;;;;;4988779;28;20082;-77
2023/06/18 04:55:09;;;;;;;0.60;0.40;;;;;;;;;;4988310;28;20549;-75
2023/06/18 04:57:36;;;;;;;0.10;0.10;;;;;;;;;;4984714;28;20061;-76
2023/06/18 05:02:44;;;;;;;0.20;0.20;;;;;;;;;;5438148;23;20051;-79
2023/06/18 05:05:10;;;;;;;0.30;0.30;;;;;;;;;;4978555;28;20050;-79
2023/06/18 05:07:37;;;;;;;0.45;0.38;;;;;;;;;;4984976;28;20064;-76
2023/06/18 05:10:04;;;;;;;0.30;0.20;;;;;;;;;;4985885;28;20059;-77
2023/06/18 05:12:31;;;;;;;0.30;0.30;;;;;;;;;;4980113;28;20070;-77
2023/06/18 05:14:57;;;;;;;0.38;0.30;;;;;;;;;;4988538;28;20054;-77
2023/06/18 05:17:24;;;;;;;0.45;0.30;;;;;;;;;;4986122;28;20054;-77
2023/06/18 05:19:50;;;;;;;0.15;0.15;;;;;;;;;;4993423;28;20062;-78
2023/06/18 05:22:17;;;;;;;0.15;0.15;;;;;;;;;;4992401;28;20043;-78
2023/06/18 05:24:43;;;;;;;1.63;0.93;;;;;;;;;;4987359;28;20066;-77
2023/06/18 05:27:10;;;;;;;0.30;0.30;;;;;;;;;;4981736;28;20051;-77
2023/06/18 05:29:36;;;;;;;0.52;0.52;;;;;;;;;;4979340;28;20174;-77
2023/06/18 05:32:03;;;;;;;0.10;0.10;;;;;;;;;;4989610;28;20070;-77
2023/06/18 05:34:30;;;;;;;0.10;0.10;;;;;;;;;;4983110;28;20067;-81
2023/06/18 05:36:56;;;;;;;0.20;0.20;;;;;;;;;;4979856;28;20086;-79
2023/06/18 05:39:23;;;;;;;1.10;0.38;;;;;;;;;;4981916;28;20311;-78
2023/06/18 05:41:50;;;;;;;0.88;0.32;;;;;;;;;;4983714;28;20598;-78
2023/06/18 05:44:17;;;;;;;0.30;0.30;;;;;;;;;;4982561;28;20059;-77
2023/06/18 05:46:43;;;;;;;3.08;0.65;;;;;;;;;;4983933;28;20098;-77
2023/06/18 05:49:10;;;;;;;0.20;0.20;;;;;;;;;;4983075;28;20086;-77
2023/06/18 05:51:36;;;;;;;0.50;0.40;;;;;;;;;;4983695;28;20109;-77
2023/06/18 05:54:03;;;;;;;0.68;0.50;;;;;;;;;;4984262;28;20082;-80
2023/06/18 05:56:30;;;;;;;0.90;0.40;;;;;;;;;;4983437;28;20055;-77
2023/06/18 05:58:57;;;;;;;0.20;0.20;;;;;;;;;;4983947;28;20061;-77
2023/06/18 06:01:23;;;;;;;0.65;0.45;;;;;;;;;;4985517;28;20058;-77
2023/06/18 06:03:50;;;;;;;0.22;0.20;;;;;;;;;;4983503;28;20109;-77
2023/06/18 06:06:17;;;;;;;0.88;0.47;;;;;;;;;;4984290;28;20086;-79
2023/06/18 06:08:44;;;;;;;0.95;0.52;;;;;;;;;;4979103;28;20137;-77
2023/06/18 06:11:10;;;;;;;0.90;0.70;;;;;;;;;;4984356;28;20062;-77
2023/06/18 06:13:37;;;;;;;0.40;0.40;;;;;;;;;;4983397;28;20050;-78
2023/06/18 06:16:03;;;;;;;1.20;0.57;;;;;;;;;;4987100;28;20054;-79
2023/06/18 06:18:30;;;;;;;0.65;0.45;;;;;;;;;;4978021;28;20062;-76
2023/06/18 06:20:56;;;;;;;0.20;0.20;;;;;;;;;;4983873;28;20054;-76
2023/06/18 06:23:23;;;;;;;0.38;0.30;;;;;;;;;;4982971;28;20567;-76
2023/06/18 06:25:50;;;;;;;0.30;0.30;;;;;;;;;;4982711;28;20070;-75
2023/06/18 06:28:16;;;;;;;1.45;0.80;;;;;;;;;;4981798;28;20047;-76
2023/06/18 06:30:43;;;;;;;0.55;0.45;;;;;;;;;;4982190;28;20505;-76
2023/06/18 06:33:09;;;;;;;0.50;0.40;;;;;;;;;;4984013;28;20535;-75
2023/06/18 06:35:36;;;;;;;0.20;0.20;;;;;;;;;;4992915;28;20055;-77
2023/06/18 06:38:03;;;;;;;0.30;0.30;;;;;;;;;;4985895;28;20055;-75
2023/06/18 06:40:30;;;;;;;0.88;0.63;;;;;;;;;;4985172;28;20058;-75
2023/06/18 06:42:56;;;;;;;2.05;0.55;;;;;;;;;;4985404;28;20081;-76
2023/06/18 06:45:23;;;;;;;1.25;0.60;;;;;;;;;;4984687;28;20142;-77
2023/06/18 06:47:49;;;;;;;0.80;0.65;;;;;;;;;;4983744;28;20047;-77
2023/06/18 06:50:16;;;;;;;0.45;0.30;;;;;;;;;;4992344;28;20745;-79
2023/06/18 06:52:42;;;;;;;0.98;0.75;;;;;;;;;;4985679;28;20137;-76
2023/06/18 06:55:09;;;;;;;0.63;0.40;;;;;;;;;;4985674;28;20552;-75
2023/06/18 06:57:35;;;;;;;0.90;0.30;;;;;;;;;;4987202;28;20082;-75
2023/06/18 07:00:03;;;;;;;0.80;0.50;;;;;;;;;;4978374;28;20081;-76
2023/06/18 07:02:30;;;;;;;0.43;0.38;;;;;;;;;;4986531;28;20059;-75
2023/06/18 07:04:57;;;;;;;0.40;0.25;;;;;;;;;;4990504;28;20137;-75
2023/06/18 07:07:23;;;;;;;0.50;0.38;;;;;;;;;;5003779;28;20063;-76
2023/06/18 07:09:50;;;;;;;1.55;0.63;;;;;;;;;;4999078;28;20086;-76
2023/06/18 07:12:16;;;;;;;0.25;0.25;;;;;;;;;;4993961;28;20063;-75
2023/06/18 07:14:44;;;;;;;0.30;0.30;;;;;;;;;;4993346;28;20149;-77
2023/06/18 07:17:11;;;;;;;2.63;0.80;;;;;;;;;;4997069;28;20113;-78
2023/06/18 07:19:37;;;;;;;0.45;0.35;;;;;;;;;;4991474;28;20050;-75
2023/06/18 07:22:04;;;;;;;0.40;0.40;;;;;;;;;;4983196;28;20050;-75
2023/06/18 07:24:30;;;;;;;0.25;0.25;;;;;;;;;;4985699;28;20655;-75
2023/06/18 07:26:57;;;;;;;0.65;0.40;;;;;;;;;;4992023;28;20119;-76
2023/06/18 07:29:23;;;;;;;1.20;0.65;;;;;;;;;;4987686;28;20511;-75
2023/06/18 07:31:50;;;;;;;0.50;0.35;;;;;;;;;;5001107;28;20057;-75
2023/06/18 07:34:16;;;;;;;3.30;1.15;;;;;;;;;;4992673;28;20051;-76
2023/06/18 07:36:43;;;;;;;0.40;0.30;;;;;;;;;;4981350;28;20126;-75
2023/06/18 07:39:10;;;;;;;1.00;0.55;;;;;;;;;;4987051;28;20062;-74
2023/06/18 07:41:37;;;;;;;0.47;0.47;;;;;;;;;;4972390;28;20055;-75
2023/06/18 07:44:03;;;;;;;1.75;0.85;;;;;;;;;;4982917;28;20062;-76
2023/06/18 07:46:30;;;;;;;0.32;0.32;;;;;;;;;;4984799;28;20051;-76
2023/06/18 07:48:56;;;;;;;0.77;0.50;;;;;;;;;;4988109;28;20182;-77
2023/06/18 07:51:23;;;;;;;0.45;0.30;;;;;;;;;;4984041;28;20054;-75
2023/06/18 07:53:49;;;;;;;0.55;0.40;;;;;;;;;;4986435;28;20162;-74
2023/06/18 07:56:17;;;;;;;1.10;0.60;;;;;;;;;;4984149;28;20572;-73
2023/06/18 07:58:46;;;;;;;0.75;0.50;;;;;;;;;;4986797;28;20065;-76
2023/06/18 08:01:12;;;;;;;0.43;0.32;;;;;;;;;;4982670;28;20054;-75
2023/06/18 08:03:39;;;;;;;0.65;0.35;;;;;;;;;;4982170;28;20105;-75
2023/06/18 08:06:05;;;;;;;0.63;0.57;;;;;;;;;;4986225;28;20083;-76
2023/06/18 08:08:34;;;;;;;0.98;0.52;;;;;;;;;;4983101;28;20059;-76
2023/06/18 08:11:01;;;;;;;0.43;0.43;;;;;;;;;;4981420;28;20807;-75
2023/06/18 08:13:27;;;;;;;0.47;0.30;;;;;;;;;;4983640;28;20047;-76
2023/06/18 08:15:54;;;;;;;0.30;0.30;;;;;;;;;;4985613;28;20093;-75
2023/06/18 08:18:20;;;;;;;0.60;0.40;;;;;;;;;;4984977;28;20114;-76
2023/06/18 08:20:47;;;;;;;0.68;0.45;;;;;;;;;;4981698;28;20461;-73
2023/06/18 08:23:15;;;;;;;0.57;0.45;;;;;;;;;;4985935;28;20062;-74
2023/06/18 08:25:41;;;;;;;0.47;0.30;;;;;;;;;;4979383;28;20055;-76
2023/06/18 08:28:08;;;;;;;0.32;0.30;;;;;;;;;;4983179;28;20058;-74
2023/06/18 08:30:34;;;;;;;0.85;0.50;;;;;;;;;;4983447;28;20502;-73
2023/06/18 08:33:00;;;;;;;0.40;0.40;;;;;;;;;;4981622;28;20101;-73
2023/06/18 08:35:27;;;;;;;0.50;0.35;;;;;;;;;;4986040;28;20086;-73
2023/06/18 08:37:53;;;;;;;1.77;0.50;;;;;;;;;;4984225;28;20073;-73
2023/06/18 08:40:26;;;;;;;0.35;0.32;;;;;;;;;;4983604;28;20059;-73
2023/06/18 08:42:53;;;;;;;1.05;0.75;;;;;;;;;;4984107;28;20055;-73
2023/06/18 08:45:32;;;;;;;0.60;0.47;;;;;;;;;;4984364;28;20067;-73
2023/06/18 08:47:59;;;;;;;0.98;0.50;;;;;;;;;;4982841;28;20106;-73
2023/06/18 08:50:30;;;;;;;0.45;0.35;;;;;;;;;;4982728;28;20257;-73
2023/06/18 08:52:59;;;;;;;0.98;0.47;;;;;;;;;;4983686;28;20055;-74
2023/06/18 08:55:26;;;;;;;0.70;0.38;;;;;;;;;;4984161;28;20519;-73
2023/06/18 08:58:02;;;;;;;0.90;0.50;;;;;;;;;;4984714;28;20063;-73
2023/06/18 09:00:28;;;;;;;0.30;0.30;;;;;;;;;;4987644;28;20133;-73
2023/06/18 09:02:56;;;;;;;0.45;0.45;;;;;;;;;;4981563;28;20115;-72
2023/06/18 09:05:23;;;;;;;0.30;0.30;;;;;;;;;;4982784;28;20050;-73
2023/06/18 09:07:50;;;;;;;0.52;0.43;;;;;;;;;;4966607;28;20070;-73
2023/06/18 09:10:18;;;;;;;0.75;0.60;;;;;;;;;;4966183;28;20059;-73
2023/06/18 09:12:53;;;;;;;0.30;0.30;;;;;;;;;;4982267;28;20571;-73
2023/06/18 09:15:21;;;;;;;0.65;0.40;;;;;;;;;;4978779;28;20103;-73
2023/06/18 09:17:50;;;;;;;0.80;0.40;;;;;;;;;;4983766;28;21178;-72
2023/06/18 09:20:18;;;;;;;0.40;0.30;;;;;;;;;;4982373;28;21093;-74
2023/06/18 09:22:45;;;;;;;0.65;0.65;;;;;;;;;;4982261;28;20059;-72
2023/06/18 09:25:17;;;;;;;2.17;0.52;;;;;;;;;;4979503;28;20047;-73
2023/06/18 09:27:44;;;;;;;0.77;0.57;;;;;;;;;;4974932;28;20139;-73
2023/06/18 09:30:23;;;;;;;0.73;0.45;;;;;;;;;;4986163;28;20051;-73
2023/06/18 09:32:49;;;;;;;1.13;0.50;;;;;;;;;;4981223;28;20054;-73
2023/06/18 09:35:17;;;;;;;1.15;0.60;;;;;;;;;;4984496;28;20089;-73
2023/06/18 09:37:44;;;;;;;0.38;0.30;;;;;;;;;;4980760;28;20509;-72
2023/06/18 09:40:14;;;;;;;2.20;1.42;;;;;;;;;;4974293;28;20050;-73
2023/06/18 09:42:41;;;;;;;0.68;0.52;;;;;;;;;;4988138;28;20057;-73
2023/06/18 09:45:09;;;;;;;0.52;0.40;;;;;;;;;;4987531;28;20059;-74
2023/06/18 09:47:40;;;;;;;0.98;0.55;;;;;;;;;;4984381;28;20055;-75
2023/06/18 09:50:08;;;;;;;0.60;0.38;;;;;;;;;;4983702;28;20059;-75
2023/06/18 09:52:40;;;;;;;0.60;0.55;;;;;;;;;;4986095;28;20062;-74
2023/06/18 09:55:24;;;;;;;0.63;0.40;;;;;;;;;;4982781;28;20079;-75
2023/06/18 09:57:51;;;;;;;0.60;0.50;;;;;;;;;;4983399;28;20579;-73
2023/06/18 10:00:17;;;;;;;2.17;0.63;;;;;;;;;;4982632;28;20149;-75
2023/06/18 10:02:44;;;;;;;0.60;0.35;;;;;;;;;;4980216;28;20079;-74
2023/06/18 10:05:11;;;;;;;0.40;0.40;;;;;;;;;;4981636;28;20105;-74
2023/06/18 10:07:40;;;;;;;0.40;0.40;;;;;;;;;;4982996;28;22319;-74
2023/06/18 10:10:10;;;;;;;2.43;0.87;;;;;;;;;;4984286;28;20528;-74
2023/06/18 10:12:37;;;;;;;0.88;0.55;;;;;;;;;;4983488;28;20054;-73
2023/06/18 10:15:04;;;;;;;0.38;0.38;;;;;;;;;;4983545;28;20114;-75
2023/06/18 10:17:34;;;;;;;0.52;0.50;;;;;;;;;;4983001;28;20058;-74
2023/06/18 10:20:03;;;;;;;0.30;0.30;;;;;;;;;;4984540;28;20047;-74
2023/06/18 10:22:34;;;;;;;2.05;1.95;;;;;;;;;;4982056;28;20055;-74
2023/06/18 10:25:04;;;;;;;1.08;0.40;;;;;;;;;;4983990;28;20066;-74
2023/06/18 10:27:34;;;;;;;0.57;0.40;;;;;;;;;;4980810;28;20126;-74
2023/06/18 10:30:01;;;;;;;1.48;0.60;;;;;;;;;;4982908;28;20063;-75
2023/06/18 10:32:28;;;;;;;0.85;0.70;;;;;;;;;;4982416;28;20142;-75
2023/06/18 10:34:56;;;;;;;0.82;0.50;;;;;;;;;;4980323;28;20059;-75
2023/06/18 10:37:25;;;;;;;0.88;0.68;;;;;;;;;;4981345;28;20062;-75
2023/06/18 10:39:52;;;;;;;0.80;0.55;;;;;;;;;;4981182;28;20055;-74
2023/06/18 10:42:19;;;;;;;0.95;0.68;;;;;;;;;;4981996;28;20071;-74
2023/06/18 10:44:45;;;;;;;0.77;0.50;;;;;;;;;;4982097;28;20054;-75
2023/06/18 10:47:41;;;;;;;1.55;0.75;;;;;;;;;;4980619;28;20051;-75
2023/06/18 10:50:09;;;;;;;0.50;0.50;;;;;;;;;;4971670;28;20202;-74
2023/06/18 10:52:38;;;;;;;0.93;0.60;;;;;;;;;;4983154;28;20790;-75
2023/06/18 10:55:20;;;;;;;0.90;0.55;;;;;;;;;;4978993;28;20143;-74
2023/06/18 10:57:58;;;;;;;1.77;1.05;;;;;;;;;;4991676;28;20061;-74
2023/06/18 11:00:31;;;;;;;0.47;0.40;;;;;;;;;;4977736;28;20133;-73
2023/06/18 11:03:00;;;;;;;1.10;0.63;;;;;;;;;;4984446;28;20055;-74
2023/06/18 11:05:36;;;;;;;1.02;0.63;;;;;;;;;;4991500;28;20137;-73
2023/06/18 11:11:14;;;;;;;0.30;0.30;;;;;;;;;;5115816;22;20488;-74
2023/06/18 11:13:41;;;;;;;0.82;0.60;;;;;;;;;;4983810;28;20527;-74
2023/06/18 11:16:11;;;;;;;0.93;0.60;;;;;;;;;;4974819;28;20059;-74
2023/06/18 11:18:41;;;;;;;0.60;0.35;;;;;;;;;;4982976;28;20059;-74
2023/06/18 11:21:13;;;;;;;0.77;0.60;;;;;;;;;;4983528;28;20635;-73
2023/06/18 11:23:40;;;;;;;0.60;0.52;;;;;;;;;;4985372;28;20133;-74
2023/06/18 11:26:06;;;;;;;1.10;0.63;;;;;;;;;;4983874;28;20133;-74
2023/06/18 11:28:33;;;;;;;0.50;0.40;;;;;;;;;;4983193;28;20051;-73
2023/06/18 11:31:02;;;;;;;1.23;0.50;;;;;;;;;;4986110;28;20678;-73
2023/06/18 11:33:29;;;;;;;0.82;0.75;;;;;;;;;;4983109;28;20059;-74
2023/06/18 11:36:06;;;;;;;0.43;0.40;;;;;;;;;;4984254;28;20086;-73
2023/06/18 11:38:32;;;;;;;0.77;0.60;;;;;;;;;;4980848;28;20496;-74
2023/06/18 11:40:59;;;;;;;0.75;0.50;;;;;;;;;;4983242;28;20051;-74
2023/06/18 11:44:03;;;;;;;0.68;0.38;;;;;;;;;;5513498;23;21151;-73
2023/06/18 11:46:31;;;;;;;1.20;0.65;;;;;;;;;;4965651;28;20110;-74
2023/06/18 11:48:59;;;;;;;1.13;0.70;;;;;;;;;;4982206;28;20050;-74
2023/06/18 11:51:26;;;;;;;0.47;0.43;;;;;;;;;;4977632;28;20055;-73
2023/06/18 11:53:53;;;;;;;1.17;0.63;;;;;;;;;;4968975;28;20158;-74
2023/06/18 11:56:23;;;;;;;0.30;0.30;;;;;;;;;;4971033;28;20055;-74
2023/06/18 11:58:50;;;;;;;0.77;0.50;;;;;;;;;;4980332;28;20063;-74
2023/06/18 12:01:16;;;;;;;0.65;0.40;;;;;;;;;;4982319;28;20102;-76
2023/06/18 12:03:43;;;;;;;0.68;0.45;;;;;;;;;;4982838;28;20141;-76
2023/06/18 12:06:13;;;;;;;9.52;0.52;;;;;;;;;;4984394;28;20058;-76
2023/06/18 12:08:44;;;;;;;0.55;0.47;;;;;;;;;;4985262;28;20058;-75
2023/06/18 12:11:18;;;;;;;0.50;0.40;;;;;;;;;;4981521;28;20086;-76
2023/06/18 12:13:45;;;;;;;1.88;0.82;;;;;;;;;;4981877;28;20058;-76
2023/06/18 12:16:15;;;;;;;1.05;0.60;;;;;;;;;;4983476;28;20046;-76
2023/06/18 12:18:43;;;;;;;1.58;0.95;;;;;;;;;;4984794;28;20086;-75
2023/06/18 12:21:09;;;;;;;0.30;0.30;;;;;;;;;;4982280;28;20509;-75
2023/06/18 12:23:37;;;;;;;0.25;0.25;;;;;;;;;;4978893;28;20489;-75
2023/06/18 12:26:04;;;;;;;3.42;0.75;;;;;;;;;;4984618;28;20056;-75
2023/06/18 12:28:33;;;;;;;0.70;0.45;;;;;;;;;;4981121;28;20086;-75
2023/06/18 12:31:07;;;;;;;1.45;0.75;;;;;;;;;;4982445;28;20051;-76
2023/06/18 12:33:37;;;;;;;1.20;0.70;;;;;;;;;;4983497;28;20078;-75
2023/06/18 12:36:04;;;;;;;2.72;0.50;;;;;;;;;;4982111;28;20062;-75
2023/06/18 12:38:45;;;;;;;0.88;0.43;;;;;;;;;;4982538;28;20059;-75
2023/06/18 12:41:22;;;;;;;2.38;0.77;;;;;;;;;;4978466;28;20063;-74
2023/06/18 12:43:48;;;;;;;1.25;0.60;;;;;;;;;;4983419;28;20055;-74
2023/06/18 12:46:24;;;;;;;0.30;0.30;;;;;;;;;;4977991;28;20051;-74
2023/06/18 12:48:52;;;;;;;0.52;0.40;;;;;;;;;;4979954;28;20541;-74
2023/06/18 12:51:18;;;;;;;0.65;0.40;;;;;;;;;;4981647;28;20050;-73
2023/06/18 12:53:45;;;;;;;1.08;0.50;;;;;;;;;;4981926;28;20059;-74
2023/06/18 12:56:16;;;;;;;0.25;0.20;;;;;;;;;;4979347;28;20197;-73
2023/06/18 12:58:42;;;;;;;0.70;0.47;;;;;;;;;;4984205;28;20141;-74
2023/06/18 13:01:09;;;;;;;0.60;0.60;;;;;;;;;;4979473;28;20138;-74
2023/06/18 13:03:36;;;;;;;0.70;0.50;;;;;;;;;;4983996;28;20098;-74
2023/06/18 13:06:03;;;;;;;0.85;0.50;;;;;;;;;;4983349;28;20050;-74
2023/06/18 13:08:29;;;;;;;0.57;0.47;;;;;;;;;;4978677;28;20051;-74
2023/06/18 13:10:56;;;;;;;0.25;0.25;;;;;;;;;;4982149;28;20767;-73
2023/06/18 13:13:23;;;;;;;1.10;0.63;;;;;;;;;;4980857;28;20470;-75
2023/06/18 13:15:53;;;;;;;1.05;0.73;;;;;;;;;;4977593;28;20537;-74
2023/06/18 13:18:20;;;;;;;1.30;0.65;;;;;;;;;;4964785;28;20600;-74
2023/06/18 13:20:47;;;;;;;0.65;0.40;;;;;;;;;;4976451;28;20125;-74
2023/06/18 13:23:15;;;;;;;0.45;0.40;;;;;;;;;;4972601;28;20051;-74
2023/06/18 13:25:41;;;;;;;0.82;0.65;;;;;;;;;;4979500;28;20130;-74
2023/06/18 13:28:08;;;;;;;0.57;0.52;;;;;;;;;;4978607;28;20141;-75
2023/06/18 13:30:34;;;;;;;0.85;0.50;;;;;;;;;;4982406;28;20062;-74
2023/06/18 13:33:01;;;;;;;0.65;0.45;;;;;;;;;;4977536;28;20635;-75
2023/06/18 13:35:30;;;;;;;0.20;0.20;;;;;;;;;;4976106;28;20050;-74
2023/06/18 13:37:57;;;;;;;0.20;0.20;;;;;;;;;;4980593;28;20055;-75
2023/06/18 13:40:23;;;;;;;0.80;0.65;;;;;;;;;;4982990;28;20051;-74
2023/06/18 13:42:50;;;;;;;0.77;0.60;;;;;;;;;;4984336;28;20058;-74
2023/06/18 13:45:17;;;;;;;0.55;0.45;;;;;;;;;;4981475;28;20062;-74
2023/06/18 13:50:22;;;;;;;0.40;0.30;;;;;;;;;;5176691;23;20199;-75
2023/06/18 13:52:48;;;;;;;1.25;0.60;;;;;;;;;;4967535;28;20560;-75
2023/06/18 13:55:14;;;;;;;1.30;0.40;;;;;;;;;;4979686;28;20051;-76
2023/06/18 13:57:41;;;;;;;0.30;0.30;;;;;;;;;;4975053;28;20067;-74
2023/06/18 14:00:09;;;;;;;0.85;0.50;;;;;;;;;;4959816;28;20098;-74
2023/06/18 14:02:35;;;;;;;1.00;0.57;;;;;;;;;;4961833;28;20055;-73
2023/06/18 14:05:02;;;;;;;1.75;0.50;;;;;;;;;;4964607;28;20506;-74
2023/06/18 14:07:30;;;;;;;0.70;0.70;;;;;;;;;;4963965;28;20062;-73
2023/06/18 14:09:56;;;;;;;1.00;0.57;;;;;;;;;;4962897;28;20047;-74
2023/06/18 14:12:25;;;;;;;0.60;0.50;;;;;;;;;;4963063;28;20055;-72
2023/06/18 14:14:51;;;;;;;0.25;0.25;;;;;;;;;;4962797;28;20055;-73
2023/06/18 14:17:18;;;;;;;1.10;0.50;;;;;;;;;;4963451;28;20147;-74
2023/06/18 14:19:44;;;;;;;0.40;0.28;;;;;;;;;;4957807;28;20066;-75
2023/06/18 14:22:11;;;;;;;1.02;0.70;;;;;;;;;;4962982;28;20658;-74
2023/06/18 14:24:37;;;;;;;1.40;0.80;;;;;;;;;;4965469;28;20437;-74
2023/06/18 14:27:04;;;;;;;1.02;0.57;;;;;;;;;;4960435;28;20090;-74
2023/06/18 14:29:34;;;;;;;1.13;0.52;;;;;;;;;;4963562;28;20051;-75
2023/06/18 14:32:00;;;;;;;1.30;0.70;;;;;;;;;;4962554;28;20117;-75
2023/06/18 14:34:27;;;;;;;1.08;0.75;;;;;;;;;;4963889;28;20091;-75
2023/06/18 14:36:55;;;;;;;1.70;0.68;;;;;;;;;;4964271;28;20240;-76
2023/06/18 14:39:22;;;;;;;1.17;0.52;;;;;;;;;;4964681;28;20055;-75
2023/06/18 14:41:50;;;;;;;0.82;0.50;;;;;;;;;;4959538;28;21461;-73
2023/06/18 14:44:17;;;;;;;0.70;0.55;;;;;;;;;;4961849;28;20205;-73
2023/06/18 14:46:43;;;;;;;0.75;0.38;;;;;;;;;;4965362;28;20107;-74
2023/06/18 14:49:09;;;;;;;1.13;0.82;;;;;;;;;;4961074;28;20079;-74
2023/06/18 14:51:36;;;;;;;1.20;0.63;;;;;;;;;;4961635;28;20074;-75
2023/06/18 14:54:11;;;;;;;0.50;0.43;;;;;;;;;;4962279;28;20062;-74
2023/06/18 14:56:40;;;;;;;0.35;0.30;;;;;;;;;;4958334;28;20055;-74
2023/06/18 14:59:06;;;;;;;0.65;0.40;;;;;;;;;;4953592;28;20102;-75